Time;durP1;ratioP1;P1;durP2;ratioP2;P2;SDS_P1;SDS_P2;PMS_P1;PMS_P2;Temp;Humidity;BMP_temperature;BMP_pressure;BME280_temperature;BME280_humidity;BME280_pressure;Samples;Min_cycle;Max_cycle;Signal;HPM_P1;HPM_P2
2021/07/08 00:00:21;;;;;;;1.83;0.90;;;23.20;57.40;;;;;;5033397;28;20022;-72
2021/07/08 00:02:51;;;;;;;1.73;1.08;;;23.20;57.50;;;;;;5033524;28;20591;-72
2021/07/08 00:05:22;;;;;;;1.70;0.80;;;23.10;57.50;;;;;;5033629;28;20032;-72
2021/07/08 00:07:49;;;;;;;2.15;1.02;;;23.10;57.50;;;;;;5033548;28;20025;-71
2021/07/08 00:10:18;;;;;;;2.65;1.05;;;23.10;57.50;;;;;;5033094;28;20516;-72
2021/07/08 00:12:44;;;;;;;2.60;0.95;;;23.10;57.60;;;;;;5032060;28;20457;-72
2021/07/08 00:15:13;;;;;;;2.38;1.30;;;23.10;57.60;;;;;;5031925;28;20053;-72
2021/07/08 00:17:40;;;;;;;2.47;1.00;;;23.10;57.60;;;;;;5032942;28;20140;-72
2021/07/08 00:20:14;;;;;;;2.85;1.05;;;23.10;57.70;;;;;;5033246;28;20032;-72
2021/07/08 00:22:40;;;;;;;4.22;1.10;;;23.00;57.70;;;;;;5037404;28;20033;-72
2021/07/08 00:25:11;;;;;;;2.70;1.08;;;23.00;57.70;;;;;;5032950;28;20044;-71
2021/07/08 00:27:37;;;;;;;2.05;1.02;;;23.00;57.70;;;;;;5033003;28;20501;-72
2021/07/08 00:30:05;;;;;;;3.08;0.98;;;23.00;57.70;;;;;;5033045;28;20030;-72
2021/07/08 00:32:31;;;;;;;2.58;1.20;;;23.00;57.70;;;;;;5032453;28;20429;-72
2021/07/08 00:34:56;;;;;;;3.33;1.10;;;23.00;57.70;;;;;;5034037;28;20021;-72
2021/07/08 00:37:22;;;;;;;3.08;1.30;;;23.00;57.80;;;;;;5033784;28;20029;-72
2021/07/08 00:39:48;;;;;;;3.85;1.20;;;23.00;57.90;;;;;;5033828;28;20030;-72
2021/07/08 00:42:13;;;;;;;3.28;1.10;;;23.00;57.90;;;;;;5033795;28;20026;-72
2021/07/08 00:44:39;;;;;;;2.53;1.00;;;23.00;57.90;;;;;;5034958;28;20390;-72
2021/07/08 00:47:05;;;;;;;2.22;1.10;;;23.00;57.90;;;;;;5037933;28;20380;-72
2021/07/08 00:49:31;;;;;;;2.35;1.02;;;23.00;57.90;;;;;;5037899;28;20092;-72
2021/07/08 00:51:56;;;;;;;2.08;0.85;;;23.00;57.90;;;;;;5037607;28;20025;-71
2021/07/08 00:54:22;;;;;;;2.05;1.08;;;23.00;57.90;;;;;;5045354;28;20029;-72
2021/07/08 00:56:47;;;;;;;2.40;1.15;;;23.00;57.90;;;;;;5047106;28;20053;-72
2021/07/08 00:59:13;;;;;;;2.85;1.13;;;22.90;58.00;;;;;;5040726;28;20030;-72
2021/07/08 01:01:40;;;;;;;1.58;0.90;;;22.90;57.90;;;;;;5038157;28;20035;-72
2021/07/08 01:04:06;;;;;;;3.03;1.40;;;22.90;58.10;;;;;;5038290;28;20038;-72
2021/07/08 01:06:34;;;;;;;2.42;1.05;;;22.90;58.20;;;;;;5037872;28;20036;-72
2021/07/08 01:09:00;;;;;;;2.75;1.00;;;22.90;58.10;;;;;;5038494;28;20021;-71
2021/07/08 01:11:27;;;;;;;2.92;1.10;;;22.90;58.10;;;;;;5037272;28;20032;-72
2021/07/08 01:13:53;;;;;;;2.40;1.13;;;22.90;58.10;;;;;;5037194;28;20385;-71
2021/07/08 01:16:19;;;;;;;2.50;1.10;;;22.90;58.10;;;;;;5037710;28;20029;-72
2021/07/08 01:18:44;;;;;;;2.88;1.05;;;22.90;58.20;;;;;;5037589;28;20034;-72
2021/07/08 01:21:22;;;;;;;3.13;1.27;;;22.80;58.20;;;;;;5037914;28;20022;-72
2021/07/08 01:23:48;;;;;;;2.58;1.20;;;22.90;58.10;;;;;;5047892;28;20393;-72
2021/07/08 01:26:14;;;;;;;2.70;1.08;;;22.90;58.20;;;;;;5041767;28;20029;-71
2021/07/08 01:28:39;;;;;;;2.67;1.38;;;22.90;58.20;;;;;;5038094;28;20052;-72
2021/07/08 01:31:08;;;;;;;2.72;1.10;;;22.80;58.30;;;;;;5037044;28;20104;-72
2021/07/08 01:33:34;;;;;;;3.03;1.38;;;22.90;58.20;;;;;;5036807;28;20195;-72
2021/07/08 01:36:00;;;;;;;1.67;1.00;;;22.80;58.30;;;;;;5037238;28;20034;-72
2021/07/08 01:38:26;;;;;;;2.83;0.98;;;22.80;58.30;;;;;;5037183;28;20037;-72
2021/07/08 01:40:52;;;;;;;2.42;0.90;;;22.80;58.50;;;;;;5036824;28;20018;-72
2021/07/08 01:43:17;;;;;;;2.83;1.20;;;22.80;58.40;;;;;;5036954;28;20031;-71
2021/07/08 01:45:43;;;;;;;2.75;1.05;;;22.80;58.40;;;;;;5036709;28;20079;-72
2021/07/08 01:48:09;;;;;;;2.08;0.95;;;22.80;58.40;;;;;;5036627;28;20025;-72
2021/07/08 01:50:35;;;;;;;3.90;1.20;;;22.70;58.40;;;;;;5036646;28;20057;-71
2021/07/08 01:53:00;;;;;;;2.72;1.00;;;22.80;58.50;;;;;;5036344;28;20378;-71
2021/07/08 01:55:26;;;;;;;4.22;1.52;;;22.80;58.40;;;;;;5035226;28;20037;-71
2021/07/08 01:57:52;;;;;;;1.60;1.00;;;22.80;58.40;;;;;;5035605;28;20108;-71
2021/07/08 02:00:19;;;;;;;3.80;1.27;;;22.70;58.50;;;;;;5035976;28;20026;-72
2021/07/08 02:02:45;;;;;;;3.90;1.40;;;22.70;58.50;;;;;;5035361;28;20052;-72
2021/07/08 02:05:11;;;;;;;4.80;1.45;;;22.80;58.50;;;;;;5035514;28;20056;-71
2021/07/08 02:07:38;;;;;;;2.88;1.10;;;22.80;58.50;;;;;;5035433;28;20029;-71
2021/07/08 02:10:06;;;;;;;3.13;1.23;;;22.70;58.50;;;;;;5035335;28;20029;-71
2021/07/08 02:12:31;;;;;;;2.70;1.10;;;22.70;58.50;;;;;;5035462;28;20025;-71
2021/07/08 02:14:57;;;;;;;3.33;1.40;;;22.70;58.50;;;;;;5035369;28;20031;-72
2021/07/08 02:17:22;;;;;;;2.40;0.88;;;22.70;58.60;;;;;;5035421;28;20089;-72
2021/07/08 02:19:48;;;;;;;2.35;1.10;;;22.70;58.50;;;;;;5035709;28;20491;-71
2021/07/08 02:22:14;;;;;;;2.97;1.48;;;22.70;58.60;;;;;;5040556;28;20048;-72
2021/07/08 02:24:39;;;;;;;4.18;1.38;;;22.70;58.60;;;;;;5035961;28;20021;-71
2021/07/08 02:27:05;;;;;;;1.88;1.17;;;22.70;58.60;;;;;;5035391;28;20028;-72
2021/07/08 02:29:31;;;;;;;2.53;1.02;;;22.70;58.60;;;;;;5035116;28;20428;-72
2021/07/08 02:31:57;;;;;;;2.50;1.23;;;22.70;58.60;;;;;;5035019;28;20021;-72
2021/07/08 02:34:22;;;;;;;4.70;1.45;;;22.70;58.60;;;;;;5034684;28;20061;-71
2021/07/08 02:36:48;;;;;;;2.75;1.38;;;22.60;58.70;;;;;;5035176;28;20049;-71
2021/07/08 02:39:13;;;;;;;2.25;1.00;;;22.60;58.60;;;;;;5035125;28;20022;-72
2021/07/08 02:41:39;;;;;;;1.83;0.90;;;22.60;58.70;;;;;;5034797;28;20096;-71
2021/07/08 02:44:05;;;;;;;2.90;1.20;;;22.60;58.70;;;;;;5034839;28;20052;-71
2021/07/08 02:46:30;;;;;;;2.58;1.10;;;22.60;58.60;;;;;;5035053;28;20025;-72
2021/07/08 02:48:56;;;;;;;2.10;1.08;;;22.60;58.60;;;;;;5034740;28;20021;-71
2021/07/08 02:51:22;;;;;;;3.80;1.20;;;22.60;58.60;;;;;;5034628;28;20100;-71
2021/07/08 02:53:47;;;;;;;2.50;0.90;;;22.60;58.70;;;;;;5034597;28;20100;-71
2021/07/08 02:56:13;;;;;;;3.65;1.30;;;22.60;58.70;;;;;;5034565;28;20026;-72
2021/07/08 02:58:39;;;;;;;2.67;1.13;;;22.60;58.70;;;;;;5034458;28;20042;-72
2021/07/08 03:01:04;;;;;;;2.00;0.98;;;22.60;58.70;;;;;;5034249;28;20029;-71
2021/07/08 03:03:30;;;;;;;4.50;1.50;;;22.60;58.70;;;;;;5034427;28;20129;-71
2021/07/08 03:05:56;;;;;;;2.00;0.98;;;22.60;58.80;;;;;;5034205;28;20028;-71
2021/07/08 03:08:21;;;;;;;2.97;1.17;;;22.50;58.80;;;;;;5033571;28;20029;-71
2021/07/08 03:10:47;;;;;;;2.03;1.15;;;22.60;58.80;;;;;;5034461;28;20021;-71
2021/07/08 03:13:12;;;;;;;2.33;1.08;;;22.50;58.80;;;;;;5034132;28;20024;-71
2021/07/08 03:15:38;;;;;;;2.92;1.02;;;22.50;58.80;;;;;;5034175;28;20040;-72
2021/07/08 03:18:04;;;;;;;1.92;1.00;;;22.50;58.80;;;;;;5033868;28;20485;-71
2021/07/08 03:20:34;;;;;;;2.63;1.00;;;22.50;58.90;;;;;;5033985;28;20481;-71
2021/07/08 03:23:00;;;;;;;2.40;1.20;;;22.50;58.90;;;;;;5033966;28;20021;-71
2021/07/08 03:25:27;;;;;;;2.67;1.10;;;22.50;58.90;;;;;;5033883;28;20022;-71
2021/07/08 03:27:54;;;;;;;4.05;1.13;;;22.50;58.90;;;;;;5033817;28;20036;-71
2021/07/08 03:30:22;;;;;;;2.17;1.13;;;22.50;58.80;;;;;;5033883;28;20018;-70
2021/07/08 03:32:50;;;;;;;3.90;1.05;;;22.50;58.80;;;;;;5033619;28;20048;-70
2021/07/08 03:35:15;;;;;;;3.03;1.10;;;22.50;58.90;;;;;;5034115;28;20079;-71
2021/07/08 03:37:42;;;;;;;1.77;0.90;;;22.50;58.90;;;;;;5033821;28;20465;-70
2021/07/08 03:40:09;;;;;;;2.38;0.90;;;22.50;58.90;;;;;;5034107;28;20113;-70
2021/07/08 03:42:35;;;;;;;2.47;1.23;;;22.50;58.90;;;;;;5033769;28;20029;-71
2021/07/08 03:45:06;;;;;;;2.00;1.00;;;22.50;58.90;;;;;;5043468;28;20473;-73
2021/07/08 03:47:32;;;;;;;2.53;1.00;;;22.50;58.90;;;;;;5044677;28;20089;-74
2021/07/08 03:49:58;;;;;;;3.33;1.13;;;22.50;58.90;;;;;;5044476;28;20496;-73
2021/07/08 03:52:23;;;;;;;1.88;1.00;;;22.50;59.00;;;;;;5044495;28;20021;-72
2021/07/08 03:54:49;;;;;;;4.25;1.17;;;22.40;58.90;;;;;;5046502;28;20056;-72
2021/07/08 03:57:14;;;;;;;2.85;1.20;;;22.50;58.90;;;;;;5045204;28;20067;-71
2021/07/08 03:59:41;;;;;;;4.03;1.30;;;22.40;59.00;;;;;;5044043;28;20056;-69
2021/07/08 04:02:06;;;;;;;2.25;0.88;;;22.40;59.00;;;;;;5043924;28;20033;-71
2021/07/08 04:04:37;;;;;;;2.55;1.02;;;22.40;59.00;;;;;;5041297;28;20100;-69
2021/07/08 04:07:04;;;;;;;2.42;0.85;;;22.40;59.00;;;;;;5033460;28;20021;-71
2021/07/08 04:09:29;;;;;;;2.72;1.05;;;22.40;59.00;;;;;;5033261;28;20492;-70
2021/07/08 04:11:55;;;;;;;4.72;1.40;;;22.40;59.00;;;;;;5033270;28;20053;-70
2021/07/08 04:14:20;;;;;;;1.80;0.95;;;22.40;59.00;;;;;;5033020;28;20041;-70
2021/07/08 04:16:46;;;;;;;2.65;1.10;;;22.40;58.90;;;;;;5033209;28;20048;-71
2021/07/08 04:19:11;;;;;;;4.07;1.38;;;22.40;58.90;;;;;;5038493;28;20025;-71
2021/07/08 04:21:37;;;;;;;3.50;1.17;;;22.40;58.90;;;;;;5036034;28;20085;-71
2021/07/08 04:24:03;;;;;;;2.95;1.08;;;22.40;59.00;;;;;;5036429;28;20029;-70
2021/07/08 04:26:28;;;;;;;2.75;1.00;;;22.40;59.00;;;;;;5036457;28;20124;-71
2021/07/08 04:28:54;;;;;;;2.72;1.30;;;22.40;59.00;;;;;;5037203;28;20048;-70
2021/07/08 04:31:19;;;;;;;3.05;0.90;;;22.40;59.00;;;;;;5033661;28;20104;-70
2021/07/08 04:33:46;;;;;;;3.45;1.20;;;22.40;59.00;;;;;;5032867;28;20045;-70
2021/07/08 04:36:12;;;;;;;2.78;1.30;;;22.40;59.00;;;;;;5033043;28;20028;-71
2021/07/08 04:38:41;;;;;;;2.63;1.25;;;22.40;59.00;;;;;;5033098;28;20041;-71
2021/07/08 04:41:07;;;;;;;2.67;1.10;;;22.40;59.10;;;;;;5033008;28;20029;-71
2021/07/08 04:43:32;;;;;;;2.50;1.25;;;22.30;59.00;;;;;;5032718;28;20048;-70
2021/07/08 04:45:58;;;;;;;2.33;1.35;;;22.40;59.00;;;;;;5033073;28;20030;-70
2021/07/08 04:48:23;;;;;;;2.88;1.20;;;22.40;59.00;;;;;;5033058;28;20037;-70
2021/07/08 04:50:49;;;;;;;2.63;1.23;;;22.40;59.00;;;;;;5032833;28;20054;-70
2021/07/08 04:53:16;;;;;;;2.78;1.08;;;22.40;59.10;;;;;;5032668;28;20040;-71
2021/07/08 04:55:42;;;;;;;2.75;1.33;;;22.40;59.00;;;;;;5032823;28;20044;-70
2021/07/08 04:58:07;;;;;;;3.05;1.60;;;22.40;58.90;;;;;;5032626;28;20392;-70
2021/07/08 05:00:33;;;;;;;5.05;1.42;;;22.40;58.90;;;;;;5032826;28;20017;-70
2021/07/08 05:02:58;;;;;;;2.50;1.05;;;22.40;59.00;;;;;;5032842;28;20030;-70
2021/07/08 05:05:24;;;;;;;2.55;1.00;;;22.40;59.00;;;;;;5032646;28;20022;-70
2021/07/08 05:07:53;;;;;;;2.03;1.02;;;22.40;59.00;;;;;;5032694;28;20485;-71
2021/07/08 05:10:19;;;;;;;3.35;1.40;;;22.40;59.00;;;;;;5032769;28;20022;-71
2021/07/08 05:12:45;;;;;;;3.03;1.17;;;22.40;59.00;;;;;;5032373;28;20036;-70
2021/07/08 05:15:14;;;;;;;3.10;1.02;;;22.40;59.00;;;;;;5032924;28;20381;-71
2021/07/08 05:17:39;;;;;;;2.80;1.13;;;22.40;59.00;;;;;;5032460;28;20037;-71
2021/07/08 05:20:06;;;;;;;1.77;0.90;;;22.40;59.00;;;;;;5032522;28;20018;-70
2021/07/08 05:22:36;;;;;;;2.72;1.10;;;22.40;59.00;;;;;;5032594;28;20076;-70
2021/07/08 05:25:02;;;;;;;2.00;1.08;;;22.40;59.00;;;;;;5032741;28;20030;-71
2021/07/08 05:27:30;;;;;;;3.15;1.27;;;22.40;59.00;;;;;;5032334;28;20079;-71
2021/07/08 05:29:56;;;;;;;3.42;1.20;;;22.30;59.00;;;;;;5032723;28;20101;-70
2021/07/08 05:32:22;;;;;;;3.13;1.42;;;22.30;59.00;;;;;;5036012;28;20051;-70
2021/07/08 05:34:48;;;;;;;2.72;1.08;;;22.40;59.00;;;;;;5036184;28;20108;-70
2021/07/08 05:37:13;;;;;;;5.90;1.60;;;22.40;59.00;;;;;;5035979;28;20083;-71
2021/07/08 05:39:39;;;;;;;2.72;1.20;;;22.40;58.90;;;;;;5036027;28;20523;-70
2021/07/08 05:42:05;;;;;;;3.58;1.10;;;22.40;59.00;;;;;;5035900;28;20041;-71
2021/07/08 05:44:31;;;;;;;3.30;1.00;;;22.40;59.00;;;;;;5035989;28;20037;-71
2021/07/08 05:46:57;;;;;;;2.03;1.13;;;22.30;58.90;;;;;;5036646;28;20021;-71
2021/07/08 05:49:22;;;;;;;3.03;1.10;;;22.40;58.90;;;;;;5040761;28;20026;-71
2021/07/08 05:51:48;;;;;;;3.20;1.30;;;22.40;58.90;;;;;;5035809;28;20033;-71
2021/07/08 05:54:14;;;;;;;2.90;1.38;;;22.40;58.90;;;;;;5035789;28;20385;-71
2021/07/08 05:56:40;;;;;;;2.60;1.17;;;22.40;58.90;;;;;;5035883;28;20041;-71
2021/07/08 05:59:05;;;;;;;4.15;1.40;;;22.40;58.90;;;;;;5035686;28;20029;-71
2021/07/08 06:01:31;;;;;;;3.58;1.20;;;22.40;58.80;;;;;;5034282;28;20025;-71
2021/07/08 06:03:56;;;;;;;2.80;1.15;;;22.40;58.80;;;;;;5035516;28;20039;-71
2021/07/08 06:06:22;;;;;;;2.63;1.20;;;22.40;58.80;;;;;;5035957;28;20516;-70
2021/07/08 06:08:48;;;;;;;2.85;1.30;;;22.40;58.80;;;;;;5037128;28;20057;-70
2021/07/08 06:11:14;;;;;;;2.42;1.13;;;22.40;58.70;;;;;;5043293;28;20083;-71
2021/07/08 06:13:40;;;;;;;2.78;1.20;;;22.40;58.80;;;;;;5043206;28;20025;-70
2021/07/08 06:16:06;;;;;;;3.72;1.42;;;22.40;58.80;;;;;;5044526;28;20024;-70
2021/07/08 06:18:32;;;;;;;2.78;1.42;;;22.40;58.80;;;;;;5043936;28;20030;-71
2021/07/08 06:20:57;;;;;;;3.33;1.83;;;22.40;58.70;;;;;;5043702;28;20025;-71
2021/07/08 06:23:23;;;;;;;2.55;1.30;;;22.40;58.70;;;;;;5043428;28;20043;-71
2021/07/08 06:25:50;;;;;;;4.38;1.38;;;22.40;58.70;;;;;;5043531;28;20026;-71
2021/07/08 06:28:17;;;;;;;2.63;1.35;;;22.40;58.70;;;;;;5043993;28;20021;-73
2021/07/08 06:30:44;;;;;;;2.88;1.20;;;22.40;58.70;;;;;;5043535;28;20085;-71
2021/07/08 06:33:10;;;;;;;3.33;1.48;;;22.40;58.70;;;;;;5043923;28;20221;-71
2021/07/08 06:35:35;;;;;;;3.28;1.20;;;22.40;58.70;;;;;;5043397;28;20029;-71
2021/07/08 06:38:01;;;;;;;3.05;1.10;;;22.40;58.70;;;;;;5045108;28;20056;-70
2021/07/08 06:40:27;;;;;;;2.00;1.17;;;22.40;58.70;;;;;;5038113;28;20025;-70
2021/07/08 06:42:53;;;;;;;2.00;1.10;;;22.40;58.70;;;;;;5034829;28;20029;-70
2021/07/08 06:45:20;;;;;;;2.17;1.20;;;22.50;58.70;;;;;;5035194;28;20095;-70
2021/07/08 06:47:49;;;;;;;3.63;1.40;;;22.40;58.70;;;;;;5034855;28;20057;-70
2021/07/08 06:50:15;;;;;;;2.85;1.40;;;22.50;58.70;;;;;;5035104;28;20377;-70
2021/07/08 06:52:41;;;;;;;2.67;1.13;;;22.40;58.70;;;;;;5034935;28;20021;-70
2021/07/08 06:55:07;;;;;;;4.60;1.42;;;22.50;58.70;;;;;;5034688;28;20021;-70
2021/07/08 06:57:33;;;;;;;1.83;1.02;;;22.40;58.70;;;;;;5034314;28;20033;-70
2021/07/08 06:59:59;;;;;;;2.95;1.10;;;22.40;58.70;;;;;;5034289;28;20035;-70
2021/07/08 07:02:24;;;;;;;3.13;1.25;;;22.40;58.70;;;;;;5034215;28;20380;-71
2021/07/08 07:04:50;;;;;;;2.67;1.30;;;22.50;58.70;;;;;;5033012;28;20021;-71
2021/07/08 07:07:15;;;;;;;2.85;1.50;;;22.50;58.70;;;;;;5034179;28;20061;-70
2021/07/08 07:09:42;;;;;;;3.05;1.33;;;22.50;58.80;;;;;;5034570;28;20029;-70
2021/07/08 07:12:08;;;;;;;2.50;1.13;;;22.50;58.70;;;;;;5034214;28;20057;-70
2021/07/08 07:14:33;;;;;;;3.17;1.17;;;22.50;58.70;;;;;;5034085;28;20029;-70
2021/07/08 07:16:59;;;;;;;2.33;1.25;;;22.50;58.70;;;;;;5034286;28;20029;-71
2021/07/08 07:19:25;;;;;;;2.72;1.05;;;22.50;58.70;;;;;;5036674;28;20119;-71
2021/07/08 07:21:50;;;;;;;2.60;1.20;;;22.50;58.70;;;;;;5034158;28;20100;-70
2021/07/08 07:24:16;;;;;;;2.25;1.10;;;22.50;58.70;;;;;;5033809;28;20091;-70
2021/07/08 07:26:42;;;;;;;4.07;1.60;;;22.50;58.60;;;;;;5033851;28;20021;-70
2021/07/08 07:29:08;;;;;;;4.15;1.35;;;22.50;58.60;;;;;;5033576;28;20037;-70
2021/07/08 07:31:33;;;;;;;3.08;1.10;;;22.50;58.60;;;;;;5033389;28;20023;-70
2021/07/08 07:33:59;;;;;;;2.20;1.15;;;22.50;58.60;;;;;;5033109;28;20132;-71
2021/07/08 07:36:24;;;;;;;4.47;1.40;;;22.50;58.60;;;;;;5033309;28;20075;-70
2021/07/08 07:38:50;;;;;;;2.05;1.05;;;22.60;58.60;;;;;;5033603;28;20041;-71
2021/07/08 07:41:16;;;;;;;5.43;1.08;;;22.60;58.60;;;;;;5015899;28;20354;-70
2021/07/08 07:43:42;;;;;;;2.58;1.17;;;22.60;58.60;;;;;;5033170;28;20104;-73
2021/07/08 07:46:07;;;;;;;4.55;1.70;;;22.60;58.60;;;;;;5033316;28;20478;-72
2021/07/08 07:48:34;;;;;;;2.85;1.30;;;22.60;58.60;;;;;;5030567;28;20053;-71
2021/07/08 07:51:00;;;;;;;3.63;1.40;;;22.60;58.50;;;;;;5031393;28;20389;-72
2021/07/08 07:53:26;;;;;;;2.60;1.50;;;22.70;58.50;;;;;;5031922;28;20018;-73
2021/07/08 07:55:51;;;;;;;3.70;1.50;;;22.70;58.50;;;;;;5032254;28;20084;-70
2021/07/08 07:58:18;;;;;;;3.83;1.50;;;22.60;58.50;;;;;;5032206;28;20038;-71
2021/07/08 08:00:43;;;;;;;3.40;1.30;;;22.70;58.40;;;;;;5032347;28;20095;-70
2021/07/08 08:03:09;;;;;;;3.67;1.40;;;22.70;58.40;;;;;;5032452;28;20413;-68
2021/07/08 08:05:40;;;;;;;2.00;1.05;;;22.70;58.40;;;;;;5025647;28;20030;-69
2021/07/08 08:10:52;;;;;;;2.47;1.10;;;22.80;58.30;;;;;;5028397;28;20033;-69
2021/07/08 08:13:20;;;;;;;4.38;1.45;;;22.80;58.30;;;;;;5032463;28;20025;-69
2021/07/08 08:15:47;;;;;;;6.32;1.05;;;22.80;58.30;;;;;;5012912;28;20049;-69
2021/07/08 08:18:12;;;;;;;4.03;1.30;;;22.80;58.30;;;;;;5011742;28;20045;-68
2021/07/08 08:20:39;;;;;;;5.30;1.63;;;22.80;58.30;;;;;;5013063;28;20022;-68
2021/07/08 08:23:04;;;;;;;3.15;1.27;;;22.80;58.30;;;;;;5012563;28;20030;-68
2021/07/08 08:25:30;;;;;;;2.25;1.20;;;22.80;58.30;;;;;;5012715;28;20036;-68
2021/07/08 08:27:57;;;;;;;4.75;1.63;;;22.90;58.30;;;;;;5010617;28;20389;-68
2021/07/08 08:30:23;;;;;;;2.95;1.23;;;22.80;58.30;;;;;;5012635;28;20386;-69
2021/07/08 08:32:49;;;;;;;4.25;1.48;;;22.80;58.30;;;;;;5011961;28;20497;-68
2021/07/08 08:35:14;;;;;;;3.20;1.40;;;22.80;58.30;;;;;;5012380;28;20484;-68
2021/07/08 08:37:43;;;;;;;3.28;1.42;;;22.90;58.30;;;;;;5011675;28;20136;-68
2021/07/08 08:40:11;;;;;;;3.10;1.20;;;22.90;58.30;;;;;;5011852;28;20484;-70
2021/07/08 08:42:36;;;;;;;3.97;1.33;;;22.90;58.20;;;;;;5012720;28;20018;-72
2021/07/08 08:45:07;;;;;;;2.88;1.40;;;22.90;58.20;;;;;;5012479;28;20093;-71
2021/07/08 08:47:32;;;;;;;4.05;1.50;;;22.90;58.20;;;;;;5012261;28;20040;-70
2021/07/08 08:50:00;;;;;;;3.78;1.40;;;23.00;58.20;;;;;;5011918;28;20034;-71
2021/07/08 08:52:27;;;;;;;3.88;1.52;;;22.90;58.10;;;;;;5013341;28;20033;-68
2021/07/08 08:54:53;;;;;;;3.33;1.35;;;22.90;58.10;;;;;;5012679;28;20033;-69
2021/07/08 08:57:19;;;;;;;5.88;1.35;;;23.00;58.10;;;;;;5012292;28;20044;-71
2021/07/08 08:59:44;;;;;;;2.83;1.33;;;22.90;58.20;;;;;;5014168;28;20026;-70
2021/07/08 09:02:18;;;;;;;5.65;1.38;;;23.00;58.20;;;;;;5016392;28;20060;-70
2021/07/08 09:04:45;;;;;;;5.45;1.70;;;22.90;58.20;;;;;;5012851;28;20105;-69
2021/07/08 09:07:23;;;;;;;2.95;1.23;;;23.00;58.30;;;;;;5016144;28;20131;-71
2021/07/08 09:09:57;;;;;;;4.25;1.60;;;23.00;58.20;;;;;;5015743;28;20049;-69
2021/07/08 09:12:24;;;;;;;4.53;1.55;;;23.00;58.20;;;;;;5015958;28;20034;-71
2021/07/08 09:15:15;;;;;;;5.38;1.40;;;23.00;58.10;;;;;;5015981;28;20117;-70
2021/07/08 09:17:41;;;;;;;3.83;1.30;;;23.00;58.10;;;;;;5015653;28;20030;-72
2021/07/08 09:20:15;;;;;;;4.50;1.60;;;23.00;58.00;;;;;;5015367;28;20030;-71
2021/07/08 09:22:42;;;;;;;4.10;1.70;;;23.10;58.10;;;;;;5015595;28;20061;-73
2021/07/08 09:25:26;;;;;;;5.25;1.77;;;23.10;58.00;;;;;;5015627;28;20168;-71
2021/07/08 09:28:09;;;;;;;2.75;1.30;;;23.10;58.00;;;;;;5015450;28;20022;-72
2021/07/08 09:30:35;;;;;;;3.78;1.55;;;23.10;58.00;;;;;;5015192;28;20026;-70
2021/07/08 09:33:00;;;;;;;3.50;1.48;;;23.10;58.00;;;;;;5015378;28;20049;-70
2021/07/08 09:35:38;;;;;;;3.95;1.30;;;23.10;58.10;;;;;;5015579;28;20032;-71
2021/07/08 09:38:12;;;;;;;4.70;1.42;;;23.10;58.00;;;;;;5030240;28;20121;-72
2021/07/08 09:40:42;;;;;;;4.60;1.48;;;23.10;58.10;;;;;;5014920;28;20469;-74
2021/07/08 09:43:08;;;;;;;2.53;1.17;;;23.10;58.10;;;;;;5015520;28;20030;-74
2021/07/08 09:45:46;;;;;;;3.88;1.38;;;23.10;58.10;;;;;;5015006;28;20048;-73
2021/07/08 09:48:19;;;;;;;3.88;1.38;;;23.10;58.00;;;;;;5013457;28;20030;-73
2021/07/08 09:50:45;;;;;;;3.20;1.50;;;23.20;58.00;;;;;;5014462;28;20026;-74
2021/07/08 09:53:19;;;;;;;4.10;1.60;;;23.20;58.10;;;;;;5016536;28;20026;-74
2021/07/08 09:58:29;;;;;;;3.05;1.48;;;23.20;58.00;;;;;;5015538;28;20042;-74
2021/07/08 10:00:55;;;;;;;4.57;1.40;;;23.20;58.00;;;;;;5014352;28;20032;-73
2021/07/08 10:03:20;;;;;;;5.97;1.80;;;23.20;58.00;;;;;;5015173;28;20026;-72
2021/07/08 10:05:46;;;;;;;4.60;1.58;;;23.20;58.00;;;;;;5015807;28;20029;-74
2021/07/08 10:08:12;;;;;;;4.25;1.70;;;23.30;58.00;;;;;;5014624;28;20030;-74
2021/07/08 10:10:39;;;;;;;3.28;1.30;;;23.20;57.90;;;;;;5013466;28;20054;-73
2021/07/08 10:13:06;;;;;;;5.63;1.58;;;23.30;57.90;;;;;;5014269;28;20125;-73
2021/07/08 10:15:35;;;;;;;6.82;1.63;;;23.30;57.90;;;;;;5014528;28;20373;-73
2021/07/08 10:18:03;;;;;;;3.67;1.17;;;23.30;57.90;;;;;;5014499;28;20088;-73
2021/07/08 10:20:30;;;;;;;4.05;1.50;;;23.30;57.90;;;;;;5014894;28;20025;-73
2021/07/08 10:22:58;;;;;;;2.90;1.23;;;23.40;57.80;;;;;;5015377;28;20026;-73
2021/07/08 10:25:24;;;;;;;5.88;1.58;;;23.30;57.80;;;;;;5014246;28;20029;-73
2021/07/08 10:27:51;;;;;;;7.65;1.73;;;23.40;57.90;;;;;;5015254;28;20049;-73
2021/07/08 10:30:20;;;;;;;5.45;1.65;;;23.40;57.80;;;;;;5014788;28;20540;-73
2021/07/08 10:32:52;;;;;;;5.30;1.73;;;23.40;57.80;;;;;;5014986;28;20042;-73
2021/07/08 10:35:47;;;;;;;3.97;1.60;;;23.40;57.80;;;;;;5014837;28;20026;-74
2021/07/08 10:38:27;;;;;;;6.82;2.30;;;23.40;57.80;;;;;;5014954;28;20041;-73
2021/07/08 10:41:13;;;;;;;5.88;2.00;;;23.40;57.80;;;;;;5014845;28;20034;-73
2021/07/08 10:43:43;;;;;;;5.72;1.50;;;23.40;57.80;;;;;;5013306;28;20034;-73
2021/07/08 10:46:11;;;;;;;4.32;1.50;;;23.40;57.80;;;;;;5015310;28;20466;-73
2021/07/08 10:48:48;;;;;;;4.32;1.33;;;23.40;57.80;;;;;;5014645;28;20034;-73
2021/07/08 10:51:18;;;;;;;4.90;1.60;;;23.40;57.80;;;;;;5014948;28;20026;-73
2021/07/08 10:53:46;;;;;;;4.15;1.50;;;23.40;57.80;;;;;;5017178;28;20076;-73
2021/07/08 10:56:20;;;;;;;4.90;1.35;;;23.40;57.80;;;;;;5014680;28;20449;-73
2021/07/08 10:58:47;;;;;;;8.15;1.30;;;23.40;57.80;;;;;;5031560;28;20124;-74
2021/07/08 11:01:21;;;;;;;4.03;1.38;;;23.40;57.80;;;;;;5016120;28;20049;-73
2021/07/08 11:03:48;;;;;;;3.03;1.30;;;23.40;57.80;;;;;;5014756;28;20030;-74
2021/07/08 11:06:15;;;;;;;4.05;1.58;;;23.40;57.80;;;;;;4996904;28;20033;-74
2021/07/08 11:08:51;;;;;;;3.08;1.30;;;23.50;57.80;;;;;;5014234;28;20531;-74
2021/07/08 11:11:19;;;;;;;4.93;1.50;;;23.40;57.80;;;;;;5014637;28;20037;-74
2021/07/08 11:13:45;;;;;;;3.70;1.10;;;23.40;57.80;;;;;;5014448;28;20385;-74
2021/07/08 11:16:40;;;;;;;5.93;1.42;;;23.50;57.90;;;;;;5014718;28;20109;-74
2021/07/08 11:19:06;;;;;;;3.90;1.45;;;23.40;57.90;;;;;;5014402;28;20537;-74
2021/07/08 11:21:56;;;;;;;5.57;1.52;;;23.40;57.90;;;;;;5014164;28;20101;-73
2021/07/08 11:24:22;;;;;;;5.35;1.60;;;23.40;57.90;;;;;;5014357;28;20032;-74
2021/07/08 11:27:08;;;;;;;3.10;1.23;;;23.40;57.90;;;;;;5014001;28;20203;-73
2021/07/08 11:29:53;;;;;;;7.97;1.58;;;23.40;57.90;;;;;;5013536;28;20045;-73
2021/07/08 11:32:32;;;;;;;5.75;1.65;;;23.40;57.90;;;;;;5013547;28;20034;-72
2021/07/08 11:35:10;;;;;;;4.47;1.42;;;23.40;58.00;;;;;;5013936;28;20029;-73
2021/07/08 11:37:42;;;;;;;4.10;1.42;;;23.40;58.00;;;;;;5014508;28;20033;-73
2021/07/08 11:40:14;;;;;;;3.05;1.27;;;23.40;57.90;;;;;;5022110;28;20025;-73
2021/07/08 11:42:42;;;;;;;5.30;1.75;;;23.50;57.90;;;;;;5025757;28;20030;-72
2021/07/08 11:45:10;;;;;;;4.47;1.60;;;23.50;57.90;;;;;;5023551;28;20029;-72
2021/07/08 11:47:46;;;;;;;5.20;1.52;;;23.40;57.90;;;;;;5024719;28;20060;-72
2021/07/08 11:50:19;;;;;;;6.10;1.65;;;23.50;57.90;;;;;;5023991;28;20112;-70
2021/07/08 11:52:46;;;;;;;4.63;1.70;;;23.50;57.90;;;;;;5022571;28;20026;-70
2021/07/08 11:55:12;;;;;;;5.88;1.70;;;23.50;57.90;;;;;;5024223;28;20125;-70
2021/07/08 11:57:55;;;;;;;4.00;1.30;;;23.50;57.80;;;;;;5017019;28;20127;-69
2021/07/08 12:00:32;;;;;;;5.40;2.03;;;23.50;57.90;;;;;;5014564;28;20084;-70
2021/07/08 12:02:59;;;;;;;4.97;1.45;;;23.50;57.90;;;;;;5013524;28;20030;-71
2021/07/08 12:05:25;;;;;;;4.90;1.60;;;23.50;57.90;;;;;;5013643;28;20033;-71
2021/07/08 12:08:05;;;;;;;3.22;1.30;;;23.50;57.90;;;;;;5013645;28;20022;-70
2021/07/08 12:10:32;;;;;;;6.00;1.90;;;23.50;57.90;;;;;;5012976;28;20022;-69
2021/07/08 12:12:58;;;;;;;4.28;1.60;;;23.50;57.90;;;;;;5012847;28;20029;-74
2021/07/08 12:15:26;;;;;;;3.15;1.30;;;23.50;58.00;;;;;;5012594;28;20124;-74
2021/07/08 12:17:59;;;;;;;4.82;1.63;;;23.50;57.90;;;;;;5012636;28;20092;-73
2021/07/08 12:20:25;;;;;;;5.22;1.20;;;23.60;58.00;;;;;;5013001;28;20053;-70
2021/07/08 12:22:56;;;;;;;4.43;1.40;;;23.60;57.90;;;;;;5012841;28;20113;-74
2021/07/08 12:25:24;;;;;;;5.18;1.40;;;23.60;58.00;;;;;;5011102;28;20025;-75
2021/07/08 12:27:50;;;;;;;3.78;1.50;;;23.60;58.00;;;;;;5015542;28;20486;-74
2021/07/08 12:30:34;;;;;;;4.60;1.33;;;23.60;58.00;;;;;;5012766;28;20057;-75
2021/07/08 12:33:11;;;;;;;;;;;23.60;58.00;;;;;;5012721;28;20053;-74
2021/07/08 12:35:41;;;;;;;6.43;1.50;;;23.60;58.00;;;;;;5012217;28;19909;-75
2021/07/08 12:38:08;;;;;;;4.90;1.63;;;23.60;58.00;;;;;;5012640;28;20034;-75
2021/07/08 12:40:34;;;;;;;4.82;1.45;;;23.60;58.00;;;;;;5017663;28;20465;-74
2021/07/08 12:43:06;;;;;;;3.53;1.50;;;23.60;58.10;;;;;;5017371;28;20026;-75
2021/07/08 12:45:33;;;;;;;4.88;1.55;;;23.60;58.10;;;;;;5019317;28;20034;-75
2021/07/08 12:47:58;;;;;;;4.20;1.85;;;23.50;58.10;;;;;;5019082;28;20041;-74
2021/07/08 12:50:27;;;;;;;5.50;1.80;;;23.60;58.10;;;;;;5019263;28;20378;-74
2021/07/08 12:52:58;;;;;;;7.18;1.30;;;23.60;58.10;;;;;;5018725;28;20494;-75
2021/07/08 12:55:55;;;;;;;4.00;1.40;;;23.50;58.20;;;;;;5018886;28;20055;-75